N511KG KBDL-
Flight info
| Callsign | N511KG |
|---|---|
| Flight time | N/A |
| Altitude | VFR |
| Route | TRAFFIC PATTERN WORK |
| Aircraft | C208/L-VGD/C |
Departure
| Time | 2026-04-30 02:13 |
|---|---|
| Airport | Bradley International Airport (KBDL) |
Arrival
| Time | N/A |
|---|---|
| Airport | - |
| Time | Latitude | Longitude | Altitude | Speed | Heading |
|---|---|---|---|---|---|
| 2026-04-30 01:56 | 41.93840 | -72.69350 | 181 ft | 0 kts | 340° |
| 2026-04-30 02:05 | 41.93848 | -72.69350 | 181 ft | 5 kts | 17° |
| 2026-04-30 02:05 | 41.93850 | -72.69314 | 181 ft | 3 kts | 153° |
| 2026-04-30 02:05 | 41.93838 | -72.69311 | 181 ft | 0 kts | 178° |
| 2026-04-30 02:05 | 41.93797 | -72.69325 | 182 ft | 14 kts | 197° |
| 2026-04-30 02:06 | 41.93734 | -72.69304 | 183 ft | 2 kts | 111° |
| 2026-04-30 02:06 | 41.93733 | -72.69303 | 184 ft | 0 kts | 110° |
| 2026-04-30 02:06 | 41.93742 | -72.69254 | 194 ft | 19 kts | 63° |
| 2026-04-30 02:06 | 41.93861 | -72.69085 | 184 ft | 21 kts | 56° |
| 2026-04-30 02:07 | 41.93832 | -72.69002 | 183 ft | 3 kts | 137° |
| 2026-04-30 02:07 | 41.93796 | -72.68952 | 183 ft | 14 kts | 129° |
| 2026-04-30 02:07 | 41.93703 | -72.68798 | 189 ft | 27 kts | 135° |
| 2026-04-30 02:07 | 41.93789 | -72.68609 | 181 ft | 30 kts | 43° |
| 2026-04-30 02:08 | 41.93956 | -72.68405 | 181 ft | 33 kts | 41° |
| 2026-04-30 02:08 | 41.94108 | -72.68222 | 182 ft | 26 kts | 42° |
| 2026-04-30 02:08 | 41.94227 | -72.68078 | 184 ft | 21 kts | 42° |
| 2026-04-30 02:08 | 41.94333 | -72.67945 | 182 ft | 20 kts | 43° |
| 2026-04-30 02:09 | 41.94423 | -72.67826 | 180 ft | 18 kts | 44° |
| 2026-04-30 02:09 | 41.94541 | -72.67672 | 177 ft | 29 kts | 45° |
| 2026-04-30 02:09 | 41.94703 | -72.67459 | 176 ft | 35 kts | 43° |
| 2026-04-30 02:09 | 41.94845 | -72.67275 | 177 ft | 22 kts | 44° |
| 2026-04-30 02:10 | 41.94931 | -72.67164 | 178 ft | 13 kts | 39° |
| 2026-04-30 02:10 | 41.94990 | -72.67142 | 178 ft | 0 kts | 344° |
| 2026-04-30 02:11 | 41.95013 | -72.67161 | 177 ft | 15 kts | 315° |
| 2026-04-30 02:12 | 41.94968 | -72.67346 | 176 ft | 28 kts | 226° |
| 2026-04-30 02:12 | 41.94731 | -72.67660 | 174 ft | 73 kts | 224° |
| 2026-04-30 02:12 | 41.94290 | -72.68253 | 237 ft | 101 kts | 221° |
| 2026-04-30 02:12 | 41.93771 | -72.68923 | 435 ft | 107 kts | 219° |
| 2026-04-30 02:13 | 41.93204 | -72.69589 | 752 ft | 109 kts | 217° |
| 2026-04-30 02:13 | 41.92626 | -72.70243 | 1137 ft | 107 kts | 210° |
| 2026-04-30 02:13 | 41.91947 | -72.70468 | 1309 ft | 106 kts | 174° |
| 2026-04-30 02:13 | 41.91264 | -72.69997 | 1300 ft | 119 kts | 138° |
| 2026-04-30 02:14 | 41.90861 | -72.68986 | 1288 ft | 126 kts | 106° |
| 2026-04-30 02:14 | 41.90766 | -72.67816 | 1237 ft | 125 kts | 99° |
| 2026-04-30 02:14 | 41.90798 | -72.66682 | 1302 ft | 121 kts | 91° |
| 2026-04-30 02:14 | 41.90965 | -72.65630 | 1328 ft | 101 kts | 78° |
| 2026-04-30 02:15 | 41.91266 | -72.64823 | 1168 ft | 100 kts | 62° |
| 2026-04-30 02:15 | 41.91848 | -72.64423 | 1038 ft | 98 kts | 356° |
| 2026-04-30 02:15 | 41.92365 | -72.64881 | 839 ft | 87 kts | 288° |
| 2026-04-30 02:15 | 41.92524 | -72.65585 | 635 ft | 75 kts | 270° |
| 2026-04-30 02:16 | 41.92625 | -72.66246 | 452 ft | 69 kts | 267° |
| 2026-04-30 02:16 | 41.92739 | -72.66875 | 285 ft | 72 kts | 279° |
| 2026-04-30 02:16 | 41.92999 | -72.67498 | 296 ft | 84 kts | 300° |
| 2026-04-30 02:16 | 41.93454 | -72.68122 | 414 ft | 107 kts | 310° |
| 2026-04-30 02:17 | 41.94133 | -72.68735 | 621 ft | 126 kts | 328° |
| 2026-04-30 02:17 | 41.94964 | -72.69132 | 948 ft | 129 kts | 9° |
| 2026-04-30 02:17 | 41.95615 | -72.68388 | 1139 ft | 127 kts | 82° |
| 2026-04-30 02:17 | 41.95631 | -72.67207 | 1205 ft | 127 kts | 99° |
| 2026-04-30 02:18 | 41.95553 | -72.66039 | 1291 ft | 129 kts | 100° |
| 2026-04-30 02:18 | 41.95488 | -72.64798 | 1329 ft | 134 kts | 97° |
| 2026-04-30 02:18 | 41.95482 | -72.63589 | 1441 ft | 125 kts | 94° |
| 2026-04-30 02:18 | 41.95566 | -72.62454 | 1496 ft | 122 kts | 84° |
| 2026-04-30 02:19 | 41.95776 | -72.61294 | 1311 ft | 135 kts | 79° |
| 2026-04-30 02:19 | 41.96097 | -72.60178 | 1419 ft | 123 kts | 72° |
| 2026-04-30 02:19 | 41.96553 | -72.59207 | 1445 ft | 125 kts | 33° |
| 2026-04-30 02:19 | 41.97367 | -72.59366 | 1389 ft | 129 kts | 313° |
| 2026-04-30 02:20 | 41.97805 | -72.60351 | 1403 ft | 120 kts | 277° |
| 2026-04-30 02:20 | 41.97887 | -72.61402 | 1311 ft | 100 kts | 259° |
| 2026-04-30 02:20 | 41.97848 | -72.62247 | 1169 ft | 83 kts | 256° |
| 2026-04-30 02:20 | 41.97793 | -72.62753 | 1049 ft | 83 kts | 252° |
| 2026-04-30 02:21 | 41.97631 | -72.63517 | 922 ft | 83 kts | 240° |
| 2026-04-30 02:21 | 41.97388 | -72.64150 | 750 ft | 71 kts | 231° |
| 2026-04-30 02:21 | 41.97093 | -72.64691 | 635 ft | 75 kts | 221° |
| 2026-04-30 02:21 | 41.96699 | -72.65239 | 607 ft | 84 kts | 214° |
| 2026-04-30 02:22 | 41.96278 | -72.65717 | 484 ft | 73 kts | 212° |
| 2026-04-30 02:22 | 41.95933 | -72.66111 | 419 ft | 59 kts | 217° |
| 2026-04-30 02:22 | 41.95640 | -72.66494 | 339 ft | 62 kts | 220° |
| 2026-04-30 02:22 | 41.95312 | -72.66903 | 247 ft | 65 kts | 217° |
| 2026-04-30 02:23 | 41.94989 | -72.67321 | 188 ft | 62 kts | 218° |
| 2026-04-30 02:23 | 41.94721 | -72.67676 | 175 ft | 46 kts | 216° |
| 2026-04-30 02:23 | 41.94517 | -72.67925 | 178 ft | 35 kts | 225° |
| 2026-04-30 02:23 | 41.94350 | -72.68149 | 182 ft | 39 kts | 225° |
| 2026-04-30 02:24 | 41.94091 | -72.68493 | 181 ft | 60 kts | 225° |
| 2026-04-30 02:24 | 41.93870 | -72.68782 | 181 ft | 41 kts | 223° |
| 2026-04-30 02:24 | 41.93690 | -72.68782 | 184 ft | 17 kts | 133° |
| 2026-04-30 02:24 | 41.93682 | -72.68770 | 183 ft | 0 kts | 133° |
| 2026-04-30 02:25 | 41.93681 | -72.68769 | 183 ft | 0 kts | 131° |
| 2026-04-30 02:25 | 41.93681 | -72.68768 | 183 ft | 0 kts | 130° |
| 2026-04-30 02:27 | 41.93680 | -72.68768 | 183 ft | 1 kts | 130° |
| 2026-04-30 02:27 | 41.93715 | -72.68705 | 181 ft | 17 kts | 43° |